sensor_id;sensor_type;location;lat;lon;timestamp;pressure;altitude;pressure_sealevel;temperature;humidity
21290;BME280;10804;48.988;2.408;2023-05-03T00:00:43;101791.84;;;15.79;61.46
21290;BME280;10804;48.988;2.408;2023-05-03T00:03:10;101791.03;;;15.77;61.54
21290;BME280;10804;48.988;2.408;2023-05-03T00:05:38;101785.91;;;15.73;61.53
21290;BME280;10804;48.988;2.408;2023-05-03T00:08:06;101789.41;;;15.73;61.49
21290;BME280;10804;48.988;2.408;2023-05-03T00:10:33;101784.22;;;15.70;61.69
21290;BME280;10804;48.988;2.408;2023-05-03T00:13:00;101771.13;;;15.69;61.82
21290;BME280;10804;48.988;2.408;2023-05-03T00:15:29;101770.38;;;15.65;61.61
21290;BME280;10804;48.988;2.408;2023-05-03T00:17:56;101766.88;;;15.65;61.82
21290;BME280;10804;48.988;2.408;2023-05-03T00:20:24;101758.19;;;15.61;61.73
21290;BME280;10804;48.988;2.408;2023-05-03T00:22:51;101762.66;;;15.59;61.69
21290;BME280;10804;48.988;2.408;2023-05-03T00:25:18;101770.56;;;15.58;61.86
21290;BME280;10804;48.988;2.408;2023-05-03T00:27:45;101777.69;;;15.54;61.92
21290;BME280;10804;48.988;2.408;2023-05-03T00:30:13;101778.59;;;15.53;61.89
21290;BME280;10804;48.988;2.408;2023-05-03T00:32:42;101790.94;;;15.51;61.70
21290;BME280;10804;48.988;2.408;2023-05-03T00:35:10;101777.88;;;15.48;62.00
21290;BME280;10804;48.988;2.408;2023-05-03T00:37:37;101775.34;;;15.45;61.90
21290;BME280;10804;48.988;2.408;2023-05-03T00:40:06;101770.06;;;15.45;61.95
21290;BME280;10804;48.988;2.408;2023-05-03T00:42:34;101775.47;;;15.41;61.86
21290;BME280;10804;48.988;2.408;2023-05-03T00:45:02;101780.75;;;15.39;61.81
21290;BME280;10804;48.988;2.408;2023-05-03T00:47:31;101777.44;;;15.34;62.04
21290;BME280;10804;48.988;2.408;2023-05-03T00:50:01;101776.50;;;15.35;62.00
21290;BME280;10804;48.988;2.408;2023-05-03T00:52:28;101767.84;;;15.30;61.90
21290;BME280;10804;48.988;2.408;2023-05-03T00:54:56;101769.59;;;15.30;62.05
21290;BME280;10804;48.988;2.408;2023-05-03T00:57:25;101772.31;;;15.28;62.00
21290;BME280;10804;48.988;2.408;2023-05-03T00:59:55;101774.09;;;15.26;62.14
21290;BME280;10804;48.988;2.408;2023-05-03T01:02:23;101768.03;;;15.24;62.08
21290;BME280;10804;48.988;2.408;2023-05-03T01:04:51;101762.88;;;15.21;62.08
21290;BME280;10804;48.988;2.408;2023-05-03T01:07:32;101758.50;;;15.20;62.06
21290;BME280;10804;48.988;2.408;2023-05-03T01:10:10;101753.31;;;15.17;61.99
21290;BME280;10804;48.988;2.408;2023-05-03T01:12:52;101754.34;;;15.13;62.12
21290;BME280;10804;48.988;2.408;2023-05-03T01:15:27;101743.88;;;15.10;62.07
21290;BME280;10804;48.988;2.408;2023-05-03T01:18:03;101739.53;;;15.09;62.37
21290;BME280;10804;48.988;2.408;2023-05-03T01:20:33;101748.34;;;15.08;62.17
21290;BME280;10804;48.988;2.408;2023-05-03T01:23:10;101746.63;;;15.07;62.31
21290;BME280;10804;48.988;2.408;2023-05-03T01:25:42;101751.09;;;15.04;62.28
21290;BME280;10804;48.988;2.408;2023-05-03T01:28:09;101751.13;;;15.02;62.24
21290;BME280;10804;48.988;2.408;2023-05-03T01:30:37;101758.19;;;15.00;62.33
21290;BME280;10804;48.988;2.408;2023-05-03T01:33:12;101768.72;;;14.99;62.20
21290;BME280;10804;48.988;2.408;2023-05-03T01:35:48;101767.94;;;14.95;62.21
21290;BME280;10804;48.988;2.408;2023-05-03T01:38:16;101759.28;;;14.92;62.11
21290;BME280;10804;48.988;2.408;2023-05-03T01:40:47;101761.06;;;14.91;62.26
21290;BME280;10804;48.988;2.408;2023-05-03T01:43:17;101759.41;;;14.87;62.33
21290;BME280;10804;48.988;2.408;2023-05-03T01:45:46;101759.53;;;14.83;62.08
21290;BME280;10804;48.988;2.408;2023-05-03T01:48:15;101761.31;;;14.82;62.17
21290;BME280;10804;48.988;2.408;2023-05-03T01:50:43;101760.47;;;14.80;62.29
21290;BME280;10804;48.988;2.408;2023-05-03T01:53:11;101758.75;;;14.79;62.56
21290;BME280;10804;48.988;2.408;2023-05-03T01:55:38;101763.28;;;14.74;62.46
21290;BME280;10804;48.988;2.408;2023-05-03T01:58:07;101761.50;;;14.75;62.60
21290;BME280;10804;48.988;2.408;2023-05-03T02:00:34;101762.50;;;14.71;62.61
21290;BME280;10804;48.988;2.408;2023-05-03T02:03:01;101766.91;;;14.69;62.58
21290;BME280;10804;48.988;2.408;2023-05-03T02:05:29;101772.22;;;14.67;62.33
21290;BME280;10804;48.988;2.408;2023-05-03T02:07:56;101765.28;;;14.65;62.49
21290;BME280;10804;48.988;2.408;2023-05-03T02:10:23;101765.38;;;14.62;62.41
21290;BME280;10804;48.988;2.408;2023-05-03T02:12:54;101771.50;;;14.61;62.71
21290;BME280;10804;48.988;2.408;2023-05-03T02:15:23;101772.47;;;14.58;62.64
21290;BME280;10804;48.988;2.408;2023-05-03T02:17:51;101770.81;;;14.54;62.63
21290;BME280;10804;48.988;2.408;2023-05-03T02:20:19;101765.56;;;14.54;62.75
21290;BME280;10804;48.988;2.408;2023-05-03T02:22:46;101772.66;;;14.51;62.62
21290;BME280;10804;48.988;2.408;2023-05-03T02:25:13;101755.22;;;14.48;62.80
21290;BME280;10804;48.988;2.408;2023-05-03T02:27:41;101757.91;;;14.47;62.48
21290;BME280;10804;48.988;2.408;2023-05-03T02:30:09;101758.84;;;14.43;62.86
21290;BME280;10804;48.988;2.408;2023-05-03T02:32:42;101765.84;;;14.42;62.67
21290;BME280;10804;48.988;2.408;2023-05-03T02:35:10;101762.50;;;14.37;62.42
21290;BME280;10804;48.988;2.408;2023-05-03T02:37:37;101757.25;;;14.37;62.62
21290;BME280;10804;48.988;2.408;2023-05-03T02:40:10;101764.31;;;14.35;62.77
21290;BME280;10804;48.988;2.408;2023-05-03T02:42:40;101765.25;;;14.33;62.79
21290;BME280;10804;48.988;2.408;2023-05-03T02:45:08;101765.28;;;14.30;62.93
21290;BME280;10804;48.988;2.408;2023-05-03T02:47:36;101765.28;;;14.30;62.98
21290;BME280;10804;48.988;2.408;2023-05-03T02:50:05;101763.59;;;14.27;63.08
21290;BME280;10804;48.988;2.408;2023-05-03T02:52:36;101767.19;;;14.25;62.86
21290;BME280;10804;48.988;2.408;2023-05-03T02:55:04;101762.00;;;14.22;62.75
21290;BME280;10804;48.988;2.408;2023-05-03T02:57:32;101762.88;;;14.22;62.81
21290;BME280;10804;48.988;2.408;2023-05-03T03:00:00;101762.97;;;14.18;62.85
21290;BME280;10804;48.988;2.408;2023-05-03T03:02:27;101758.56;;;14.18;62.98
21290;BME280;10804;48.988;2.408;2023-05-03T03:04:54;101760.34;;;14.16;62.77
21290;BME280;10804;48.988;2.408;2023-05-03T03:07:24;101758.66;;;14.14;62.67
21290;BME280;10804;48.988;2.408;2023-05-03T03:09:55;101747.38;;;14.10;62.78
21290;BME280;10804;48.988;2.408;2023-05-03T03:12:23;101754.44;;;14.08;63.02
21290;BME280;10804;48.988;2.408;2023-05-03T03:14:52;101754.44;;;14.08;63.27
21290;BME280;10804;48.988;2.408;2023-05-03T03:17:19;101744.03;;;14.05;63.22
21290;BME280;10804;48.988;2.408;2023-05-03T03:19:47;101744.94;;;14.03;62.83
21290;BME280;10804;48.988;2.408;2023-05-03T03:22:14;101733.66;;;13.99;62.81
21290;BME280;10804;48.988;2.408;2023-05-03T03:24:43;101735.38;;;14.00;62.85
21290;BME280;10804;48.988;2.408;2023-05-03T03:27:10;101725.00;;;13.96;63.19
21290;BME280;10804;48.988;2.408;2023-05-03T03:29:38;101732.00;;;13.95;63.02
21290;BME280;10804;48.988;2.408;2023-05-03T03:32:07;101725.03;;;13.94;63.28
21290;BME280;10804;48.988;2.408;2023-05-03T03:34:35;101724.25;;;13.91;62.82
21290;BME280;10804;48.988;2.408;2023-05-03T03:37:02;101719.91;;;13.88;63.30
21290;BME280;10804;48.988;2.408;2023-05-03T03:39:31;101716.44;;;13.89;63.25
21290;BME280;10804;48.988;2.408;2023-05-03T03:42:00;101718.19;;;13.87;63.36
21290;BME280;10804;48.988;2.408;2023-05-03T03:44:29;101723.44;;;13.87;63.29
21290;BME280;10804;48.988;2.408;2023-05-03T03:46:56;101715.72;;;13.81;63.10
21290;BME280;10804;48.988;2.408;2023-05-03T03:49:23;101718.34;;;13.81;62.76
21290;BME280;10804;48.988;2.408;2023-05-03T03:51:51;101715.78;;;13.80;62.76
21290;BME280;10804;48.988;2.408;2023-05-03T03:54:18;101723.75;;;13.75;63.07
21290;BME280;10804;48.988;2.408;2023-05-03T03:56:48;101719.34;;;13.76;62.87
21290;BME280;10804;48.988;2.408;2023-05-03T03:59:19;101722.03;;;13.74;63.20
21290;BME280;10804;48.988;2.408;2023-05-03T04:01:46;101722.06;;;13.71;63.05
21290;BME280;10804;48.988;2.408;2023-05-03T04:04:14;101725.59;;;13.70;63.08
21290;BME280;10804;48.988;2.408;2023-05-03T04:06:41;101723.88;;;13.69;63.14
21290;BME280;10804;48.988;2.408;2023-05-03T04:09:11;101726.53;;;13.68;63.24
21290;BME280;10804;48.988;2.408;2023-05-03T04:11:43;101723.09;;;13.66;62.84
21290;BME280;10804;48.988;2.408;2023-05-03T04:14:12;101723.97;;;13.65;63.09
21290;BME280;10804;48.988;2.408;2023-05-03T04:16:42;101721.38;;;13.63;63.11
21290;BME280;10804;48.988;2.408;2023-05-03T04:19:10;101724.03;;;13.62;62.94
21290;BME280;10804;48.988;2.408;2023-05-03T04:21:40;101719.75;;;13.59;62.90
21290;BME280;10804;48.988;2.408;2023-05-03T04:24:08;101718.88;;;13.59;63.11
21290;BME280;10804;48.988;2.408;2023-05-03T04:26:35;101723.28;;;13.57;63.01
21290;BME280;10804;48.988;2.408;2023-05-03T04:29:10;101703.25;;;13.54;63.11
21290;BME280;10804;48.988;2.408;2023-05-03T04:31:38;101715.53;;;13.52;63.07
21290;BME280;10804;48.988;2.408;2023-05-03T04:34:07;101708.56;;;13.51;62.82
21290;BME280;10804;48.988;2.408;2023-05-03T04:36:37;101711.13;;;13.53;63.20
21290;BME280;10804;48.988;2.408;2023-05-03T04:39:07;101712.06;;;13.50;62.98
21290;BME280;10804;48.988;2.408;2023-05-03T04:41:37;101711.25;;;13.48;63.01
21290;BME280;10804;48.988;2.408;2023-05-03T04:44:05;101705.25;;;13.43;62.99
21290;BME280;10804;48.988;2.408;2023-05-03T04:46:33;101718.31;;;13.45;63.33
21290;BME280;10804;48.988;2.408;2023-05-03T04:49:01;101719.19;;;13.45;63.19
21290;BME280;10804;48.988;2.408;2023-05-03T04:51:29;101721.84;;;13.42;63.19
21290;BME280;10804;48.988;2.408;2023-05-03T04:53:58;101721.00;;;13.42;63.05
21290;BME280;10804;48.988;2.408;2023-05-03T04:56:25;101721.94;;;13.39;63.30
21290;BME280;10804;48.988;2.408;2023-05-03T04:59:01;101717.59;;;13.38;62.87
21290;BME280;10804;48.988;2.408;2023-05-03T05:01:29;101722.81;;;13.38;62.91
21290;BME280;10804;48.988;2.408;2023-05-03T05:04:01;101722.81;;;13.38;62.99
21290;BME280;10804;48.988;2.408;2023-05-03T05:06:37;101722.00;;;13.36;62.96
21290;BME280;10804;48.988;2.408;2023-05-03T05:09:05;101721.09;;;13.37;62.94
21290;BME280;10804;48.988;2.408;2023-05-03T05:11:33;101728.09;;;13.35;63.15
21290;BME280;10804;48.988;2.408;2023-05-03T05:14:02;101714.19;;;13.33;63.03
21290;BME280;10804;48.988;2.408;2023-05-03T05:16:29;101722.03;;;13.33;63.14
21290;BME280;10804;48.988;2.408;2023-05-03T05:18:57;101712.47;;;13.32;62.82
21290;BME280;10804;48.988;2.408;2023-05-03T05:21:26;101725.56;;;13.32;62.97
21290;BME280;10804;48.988;2.408;2023-05-03T05:23:56;101723.88;;;13.30;63.20
21290;BME280;10804;48.988;2.408;2023-05-03T05:26:24;101716.91;;;13.29;62.84
21290;BME280;10804;48.988;2.408;2023-05-03T05:28:52;101726.47;;;13.31;62.83
21290;BME280;10804;48.988;2.408;2023-05-03T05:31:19;101722.94;;;13.32;62.79
21290;BME280;10804;48.988;2.408;2023-05-03T05:33:47;101733.44;;;13.31;62.95
21290;BME280;10804;48.988;2.408;2023-05-03T05:36:14;101725.59;;;13.31;62.68
21290;BME280;10804;48.988;2.408;2023-05-03T05:38:42;101736.94;;;13.33;63.03
21290;BME280;10804;48.988;2.408;2023-05-03T05:41:11;101732.53;;;13.33;62.85
21290;BME280;10804;48.988;2.408;2023-05-03T05:43:41;101730.81;;;13.32;62.82
21290;BME280;10804;48.988;2.408;2023-05-03T05:46:10;101728.19;;;13.32;62.72
21290;BME280;10804;48.988;2.408;2023-05-03T05:48:38;101739.53;;;13.33;62.74
21290;BME280;10804;48.988;2.408;2023-05-03T05:51:06;101736.03;;;13.32;62.64
21290;BME280;10804;48.988;2.408;2023-05-03T05:53:34;101736.88;;;13.34;62.87
21290;BME280;10804;48.988;2.408;2023-05-03T05:56:02;101738.59;;;13.35;62.89
21290;BME280;10804;48.988;2.408;2023-05-03T05:58:34;101738.59;;;13.35;62.51
21290;BME280;10804;48.988;2.408;2023-05-03T06:01:02;101742.97;;;13.36;62.71
21290;BME280;10804;48.988;2.408;2023-05-03T06:03:33;101742.06;;;13.37;62.68
21290;BME280;10804;48.988;2.408;2023-05-03T06:06:03;101736.78;;;13.39;62.40
21290;BME280;10804;48.988;2.408;2023-05-03T06:08:31;101743.75;;;13.40;62.52
21290;BME280;10804;48.988;2.408;2023-05-03T06:10:58;101747.25;;;13.39;62.70
21290;BME280;10804;48.988;2.408;2023-05-03T06:13:27;101753.34;;;13.41;62.79
21290;BME280;10804;48.988;2.408;2023-05-03T06:15:57;101748.00;;;13.45;62.76
21290;BME280;10804;48.988;2.408;2023-05-03T06:18:25;101741.00;;;13.46;62.29
21290;BME280;10804;48.988;2.408;2023-05-03T06:20:52;101740.03;;;13.50;62.61
21290;BME280;10804;48.988;2.408;2023-05-03T06:23:20;101734.81;;;13.50;62.39
21290;BME280;10804;48.988;2.408;2023-05-03T06:25:49;101739.16;;;13.51;62.60
21290;BME280;10804;48.988;2.408;2023-05-03T06:28:17;101741.75;;;13.52;62.55
21290;BME280;10804;48.988;2.408;2023-05-03T06:30:47;101739.94;;;13.54;62.52
21290;BME280;10804;48.988;2.408;2023-05-03T06:33:16;101741.59;;;13.58;62.10
21290;BME280;10804;48.988;2.408;2023-05-03T06:35:46;101739.81;;;13.60;62.46
21290;BME280;10804;48.988;2.408;2023-05-03T06:38:16;101732.78;;;13.61;62.37
21290;BME280;10804;48.988;2.408;2023-05-03T06:40:43;101726.72;;;13.60;62.36
21290;BME280;10804;48.988;2.408;2023-05-03T06:43:11;101732.69;;;13.65;62.28
21290;BME280;10804;48.988;2.408;2023-05-03T06:45:58;101730.03;;;13.68;62.18
21290;BME280;10804;48.988;2.408;2023-05-03T06:48:27;101732.59;;;13.70;61.88
21290;BME280;10804;48.988;2.408;2023-05-03T06:50:55;101734.28;;;13.72;61.83
21290;BME280;10804;48.988;2.408;2023-05-03T06:53:22;101735.97;;;13.75;62.15
21290;BME280;10804;48.988;2.408;2023-05-03T06:55:49;101728.94;;;13.77;62.04
21290;BME280;10804;48.988;2.408;2023-05-03T06:58:17;101728.88;;;13.80;61.95
21290;BME280;10804;48.988;2.408;2023-05-03T07:00:44;101727.09;;;13.80;61.77
21290;BME280;10804;48.988;2.408;2023-05-03T07:03:12;101724.44;;;13.83;62.12
21290;BME280;10804;48.988;2.408;2023-05-03T07:05:40;101729.63;;;13.85;61.93
21290;BME280;10804;48.988;2.408;2023-05-03T07:08:08;101725.16;;;13.88;61.69
21290;BME280;10804;48.988;2.408;2023-05-03T07:10:35;101726.84;;;13.92;61.84
21290;BME280;10804;48.988;2.408;2023-05-03T07:13:02;101723.31;;;13.93;61.76
21290;BME280;10804;48.988;2.408;2023-05-03T07:15:30;101724.09;;;13.97;61.63
21290;BME280;10804;48.988;2.408;2023-05-03T07:17:57;101709.16;;;14.00;61.72
21290;BME280;10804;48.988;2.408;2023-05-03T07:20:25;101710.88;;;14.01;61.53
21290;BME280;10804;48.988;2.408;2023-05-03T07:22:53;101710.78;;;14.04;61.72
21290;BME280;10804;48.988;2.408;2023-05-03T07:25:21;101713.34;;;14.09;61.36
21290;BME280;10804;48.988;2.408;2023-05-03T07:27:48;101706.28;;;14.11;61.29
21290;BME280;10804;48.988;2.408;2023-05-03T07:30:16;101710.59;;;14.13;61.35
21290;BME280;10804;48.988;2.408;2023-05-03T07:32:43;101706.97;;;14.17;61.52
21290;BME280;10804;48.988;2.408;2023-05-03T07:35:10;101700.84;;;14.18;61.23
21290;BME280;10804;48.988;2.408;2023-05-03T07:37:38;101698.09;;;14.24;61.29
21290;BME280;10804;48.988;2.408;2023-05-03T07:40:08;101691.91;;;14.27;61.35
21290;BME280;10804;48.988;2.408;2023-05-03T07:42:36;101690.06;;;14.30;61.18
21290;BME280;10804;48.988;2.408;2023-05-03T07:45:05;101692.59;;;14.33;61.11
21290;BME280;10804;48.988;2.408;2023-05-03T07:47:32;101680.22;;;14.38;61.25
21290;BME280;10804;48.988;2.408;2023-05-03T07:50:03;101677.50;;;14.41;61.19
21290;BME280;10804;48.988;2.408;2023-05-03T07:52:34;101676.56;;;14.45;61.11
21290;BME280;10804;48.988;2.408;2023-05-03T07:55:02;101669.47;;;14.49;61.03
21290;BME280;10804;48.988;2.408;2023-05-03T07:57:31;101669.34;;;14.53;60.88
21290;BME280;10804;48.988;2.408;2023-05-03T07:59:58;101670.94;;;14.57;61.09
21290;BME280;10804;48.988;2.408;2023-05-03T08:02:25;101671.66;;;14.64;60.96
21290;BME280;10804;48.988;2.408;2023-05-03T08:04:53;101666.31;;;14.67;60.74
21290;BME280;10804;48.988;2.408;2023-05-03T08:07:20;101668.81;;;14.71;61.10
21290;BME280;10804;48.988;2.408;2023-05-03T08:09:48;101665.22;;;14.75;60.88
21290;BME280;10804;48.988;2.408;2023-05-03T08:12:18;101660.75;;;14.79;60.90
21290;BME280;10804;48.988;2.408;2023-05-03T08:14:47;101656.28;;;14.82;61.33
21290;BME280;10804;48.988;2.408;2023-05-03T08:17:14;101660.47;;;14.88;61.13
21290;BME280;10804;48.988;2.408;2023-05-03T08:19:42;101666.50;;;14.91;61.14
21290;BME280;10804;48.988;2.408;2023-05-03T08:22:09;101662.00;;;14.96;61.40
21290;BME280;10804;48.988;2.408;2023-05-03T08:24:37;101657.56;;;14.98;61.44
21290;BME280;10804;48.988;2.408;2023-05-03T08:27:04;101664.41;;;15.02;61.44
21290;BME280;10804;48.988;2.408;2023-05-03T08:29:33;101651.22;;;15.05;61.77
21290;BME280;10804;48.988;2.408;2023-05-03T08:32:03;101650.22;;;15.09;61.53
21290;BME280;10804;48.988;2.408;2023-05-03T08:34:31;101632.72;;;15.08;61.67
21290;BME280;10804;48.988;2.408;2023-05-03T08:36:58;101643.91;;;15.15;61.76
21290;BME280;10804;48.988;2.408;2023-05-03T08:39:26;101642.03;;;15.18;61.76
21290;BME280;10804;48.988;2.408;2023-05-03T08:41:56;101642.78;;;15.23;62.10
21290;BME280;10804;48.988;2.408;2023-05-03T08:44:28;101639.19;;;15.26;62.09
21290;BME280;10804;48.988;2.408;2023-05-03T08:46:55;101648.69;;;15.30;61.85
21290;BME280;10804;48.988;2.408;2023-05-03T08:49:24;101641.63;;;15.33;62.21
21290;BME280;10804;48.988;2.408;2023-05-03T08:51:52;101645.88;;;15.37;62.11
21290;BME280;10804;48.988;2.408;2023-05-03T08:54:21;101634.34;;;15.41;62.14
21290;BME280;10804;48.988;2.408;2023-05-03T08:56:49;101640.38;;;15.45;62.36
21290;BME280;10804;48.988;2.408;2023-05-03T08:59:17;101640.22;;;15.49;62.14
21290;BME280;10804;48.988;2.408;2023-05-03T09:01:44;101628.75;;;15.52;62.38
21290;BME280;10804;48.988;2.408;2023-05-03T09:04:12;101636.50;;;15.56;62.29
21290;BME280;10804;48.988;2.408;2023-05-03T09:06:41;101640.78;;;15.60;62.36
21290;BME280;10804;48.988;2.408;2023-05-03T09:09:08;101632.78;;;15.63;62.50
21290;BME280;10804;48.988;2.408;2023-05-03T09:11:37;101634.41;;;15.67;62.37
21290;BME280;10804;48.988;2.408;2023-05-03T09:14:09;101623.75;;;15.72;62.41
21290;BME280;10804;48.988;2.408;2023-05-03T09:16:37;101620.16;;;15.74;62.43
21290;BME280;10804;48.988;2.408;2023-05-03T09:19:06;101628.75;;;15.79;62.41
21290;BME280;10804;48.988;2.408;2023-05-03T09:21:35;101613.69;;;15.84;62.45
21290;BME280;10804;48.988;2.408;2023-05-03T09:24:11;101617.06;;;15.87;62.36
21290;BME280;10804;48.988;2.408;2023-05-03T09:26:40;101609.03;;;15.92;62.58
21290;BME280;10804;48.988;2.408;2023-05-03T09:29:08;101619.44;;;15.95;62.48
21290;BME280;10804;48.988;2.408;2023-05-03T09:31:36;101618.47;;;15.97;62.28
21290;BME280;10804;48.988;2.408;2023-05-03T09:34:21;101625.31;;;16.03;62.44
21290;BME280;10804;48.988;2.408;2023-05-03T09:36:48;101619.91;;;16.07;62.51
21290;BME280;10804;48.988;2.408;2023-05-03T09:39:18;101616.28;;;16.10;62.42
21290;BME280;10804;48.988;2.408;2023-05-03T09:41:45;101613.56;;;16.13;62.71
21290;BME280;10804;48.988;2.408;2023-05-03T09:44:13;101611.59;;;16.18;62.44
21290;BME280;10804;48.988;2.408;2023-05-03T09:47:01;101607.97;;;16.22;62.39
21290;BME280;10804;48.988;2.408;2023-05-03T09:49:29;101613.13;;;16.25;62.47
21290;BME280;10804;48.988;2.408;2023-05-03T09:51:57;101608.63;;;16.28;62.40
21290;BME280;10804;48.988;2.408;2023-05-03T09:54:26;101603.25;;;16.31;62.18
21290;BME280;10804;48.988;2.408;2023-05-03T09:56:56;101605.72;;;16.37;62.32
21290;BME280;10804;48.988;2.408;2023-05-03T09:59:24;101611.66;;;16.42;62.44
21290;BME280;10804;48.988;2.408;2023-05-03T10:01:55;101609.81;;;16.44;62.42
21290;BME280;10804;48.988;2.408;2023-05-03T10:04:25;101614.03;;;16.50;62.47
21290;BME280;10804;48.988;2.408;2023-05-03T10:06:57;101598.13;;;16.53;62.36
21290;BME280;10804;48.988;2.408;2023-05-03T10:09:34;101594.47;;;16.57;62.32
21290;BME280;10804;48.988;2.408;2023-05-03T10:12:04;101595.22;;;16.60;62.35
21290;BME280;10804;48.988;2.408;2023-05-03T10:14:33;101597.69;;;16.65;62.19
21290;BME280;10804;48.988;2.408;2023-05-03T10:17:07;101587.03;;;16.68;62.27
21290;BME280;10804;48.988;2.408;2023-05-03T10:19:40;101585.09;;;16.73;62.28
21290;BME280;10804;48.988;2.408;2023-05-03T10:22:10;101575.38;;;16.73;62.31
21290;BME280;10804;48.988;2.408;2023-05-03T10:25:07;101575.97;;;16.81;62.10
21290;BME280;10804;48.988;2.408;2023-05-03T10:27:47;101582.78;;;16.87;62.20
21290;BME280;10804;48.988;2.408;2023-05-03T10:30:29;101582.66;;;16.90;62.17
21290;BME280;10804;48.988;2.408;2023-05-03T10:32:58;101572.81;;;16.95;62.05
21290;BME280;10804;48.988;2.408;2023-05-03T10:35:26;101572.66;;;16.99;62.21
21290;BME280;10804;48.988;2.408;2023-05-03T10:37:54;101569.81;;;17.04;62.15
21290;BME280;10804;48.988;2.408;2023-05-03T10:40:40;101558.13;;;17.11;61.98
21290;BME280;10804;48.988;2.408;2023-05-03T10:46:32;101561.31;;;17.19;61.93
21290;BME280;10804;48.988;2.408;2023-05-03T10:49:20;101556.66;;;17.25;62.04
21290;BME280;10804;48.988;2.408;2023-05-03T10:51:48;101547.78;;;17.28;61.95
21290;BME280;10804;48.988;2.408;2023-05-03T10:54:16;101546.59;;;17.35;61.94
21290;BME280;10804;48.988;2.408;2023-05-03T10:56:55;101542.00;;;17.40;61.85
21290;BME280;10804;48.988;2.408;2023-05-03T10:59:22;101528.66;;;17.44;61.91
21290;BME280;10804;48.988;2.408;2023-05-03T11:01:51;101522.34;;;17.48;61.89
21290;BME280;10804;48.988;2.408;2023-05-03T11:04:28;101529.13;;;17.54;61.89
21290;BME280;10804;48.988;2.408;2023-05-03T11:06:55;101519.31;;;17.57;61.64
21290;BME280;10804;48.988;2.408;2023-05-03T11:09:29;101517.50;;;17.59;61.77
21290;BME280;10804;48.988;2.408;2023-05-03T11:12:02;101509.50;;;17.61;61.81
21290;BME280;10804;48.988;2.408;2023-05-03T11:14:30;101511.69;;;17.71;61.54
21290;BME280;10804;48.988;2.408;2023-05-03T11:16:57;101512.41;;;17.75;61.60
21290;BME280;10804;48.988;2.408;2023-05-03T11:19:27;101507.81;;;17.80;61.48
21290;BME280;10804;48.988;2.408;2023-05-03T11:21:55;101500.59;;;17.83;61.54
21290;BME280;10804;48.988;2.408;2023-05-03T11:24:23;101502.13;;;17.89;61.42
21290;BME280;10804;48.988;2.408;2023-05-03T11:26:50;101500.16;;;17.94;61.42
21290;BME280;10804;48.988;2.408;2023-05-03T11:29:19;101496.44;;;17.98;61.36
21290;BME280;10804;48.988;2.408;2023-05-03T11:31:46;101498.81;;;18.04;61.35
21290;BME280;10804;48.988;2.408;2023-05-03T11:34:14;101494.16;;;18.09;61.42
21290;BME280;10804;48.988;2.408;2023-05-03T11:36:41;101475.63;;;18.10;61.29
21290;BME280;10804;48.988;2.408;2023-05-03T11:39:11;101485.78;;;18.19;61.14
21290;BME280;10804;48.988;2.408;2023-05-03T11:41:38;101476.66;;;18.26;61.01
21290;BME280;10804;48.988;2.408;2023-05-03T11:44:07;101477.34;;;18.31;60.86
21290;BME280;10804;48.988;2.408;2023-05-03T11:46:37;101461.13;;;18.39;60.97
21290;BME280;10804;48.988;2.408;2023-05-03T11:49:05;101462.56;;;18.46;60.76
21290;BME280;10804;48.988;2.408;2023-05-03T11:51:33;101465.81;;;18.52;60.59
21290;BME280;10804;48.988;2.408;2023-05-03T11:54:01;101461.06;;;18.59;60.61
21290;BME280;10804;48.988;2.408;2023-05-03T11:56:29;101460.81;;;18.65;60.56
21290;BME280;10804;48.988;2.408;2023-05-03T11:58:57;101456.00;;;18.73;60.46
21290;BME280;10804;48.988;2.408;2023-05-03T12:01:26;101444.34;;;18.77;60.23
21290;BME280;10804;48.988;2.408;2023-05-03T12:03:57;101442.19;;;18.85;60.43
21290;BME280;10804;48.988;2.408;2023-05-03T12:06:25;101444.63;;;18.89;60.28
21290;BME280;10804;48.988;2.408;2023-05-03T12:08:53;101445.19;;;18.96;60.19
21290;BME280;10804;48.988;2.408;2023-05-03T12:11:21;101428.16;;;19.01;60.07
21290;BME280;10804;48.988;2.408;2023-05-03T12:13:55;101431.34;;;19.08;60.14
21290;BME280;10804;48.988;2.408;2023-05-03T12:16:24;101426.69;;;19.13;59.98
21290;BME280;10804;48.988;2.408;2023-05-03T12:18:53;101426.41;;;19.19;59.82
21290;BME280;10804;48.988;2.408;2023-05-03T12:21:24;101419.91;;;19.26;59.75
21290;BME280;10804;48.988;2.408;2023-05-03T12:23:51;101416.97;;;19.32;59.81
21290;BME280;10804;48.988;2.408;2023-05-03T12:26:19;101411.50;;;19.35;59.51
21290;BME280;10804;48.988;2.408;2023-05-03T12:28:47;101418.97;;;19.44;59.65
21290;BME280;10804;48.988;2.408;2023-05-03T12:31:15;101412.44;;;19.51;59.46
21290;BME280;10804;48.988;2.408;2023-05-03T12:33:43;101408.53;;;19.58;59.52
21290;BME280;10804;48.988;2.408;2023-05-03T12:36:10;101409.06;;;19.64;59.45
21290;BME280;10804;48.988;2.408;2023-05-03T12:38:39;101400.66;;;19.73;59.31
21290;BME280;10804;48.988;2.408;2023-05-03T12:41:06;101403.84;;;19.80;59.18
21290;BME280;10804;48.988;2.408;2023-05-03T12:43:34;101389.34;;;19.87;59.06
21290;BME280;10804;48.988;2.408;2023-05-03T12:46:02;101388.84;;;19.96;58.92
21290;BME280;10804;48.988;2.408;2023-05-03T12:48:29;101388.38;;;20.05;58.86
21290;BME280;10804;48.988;2.408;2023-05-03T12:50:57;101382.56;;;20.13;58.68
21290;BME280;10804;48.988;2.408;2023-05-03T12:53:24;101391.81;;;20.22;58.60
21290;BME280;10804;48.988;2.408;2023-05-03T12:55:54;101382.53;;;20.30;58.51
21290;BME280;10804;48.988;2.408;2023-05-03T12:58:21;101387.31;;;20.39;58.40
21290;BME280;10804;48.988;2.408;2023-05-03T13:00:48;101388.50;;;20.49;58.05
21290;BME280;10804;48.988;2.408;2023-05-03T13:03:16;101380.97;;;20.57;58.23